Time;durP1;ratioP1;P1;durP2;ratioP2;P2;SDS_P1;SDS_P2;PMS_P1;PMS_P2;Temp;Humidity;BMP_temperature;BMP_pressure;BME280_temperature;BME280_humidity;BME280_pressure;Samples;Min_cycle;Max_cycle;Signal;HPM_P1;HPM_P2
2021/06/19 10:23:59;;;;;;;;;10.75;10.75;;;;;25.05;53.45;100771.31;5123695;27;45445;-71
2021/06/19 10:26:24;;;;;;;;;13.25;11.00;;;;;25.24;52.52;100775.19;5081310;27;45438;-76
2021/06/19 10:28:55;;;;;;;;;12.50;10.75;;;;;25.38;52.38;100762.59;5085634;27;45457;-77
2021/06/19 10:31:20;;;;;;;;;11.75;11.75;;;;;25.50;51.84;100761.81;5091407;27;45882;-76
2021/06/19 10:33:46;;;;;;;;;12.00;11.00;;;;;25.59;52.38;100762.47;5073240;27;47338;-80
2021/06/19 10:36:13;;;;;;;;;12.50;12.50;;;;;25.68;51.86;100762.13;5071615;27;45485;-79
2021/06/19 10:38:52;;;;;;;;;12.00;11.25;;;;;25.76;51.91;100755.75;5053975;27;45662;-79
2021/06/19 10:41:20;;;;;;;;;13.25;11.75;;;;;25.82;51.24;100754.94;5112631;27;45263;-79
2021/06/19 10:43:47;;;;;;;;;11.00;11.00;;;;;25.89;50.94;100747.66;5101596;27;45856;-80
2021/06/19 10:46:36;;;;;;;;;15.00;13.50;;;;;25.93;51.62;100738.13;5105881;27;45349;-85
2021/06/19 10:49:21;;;;;;;;;14.00;12.25;;;;;25.99;50.77;100741.88;5073274;27;45458;-72
2021/06/19 10:51:47;;;;;;;;;10.50;10.50;;;;;26.04;50.56;100739.38;5101187;27;46951;-72
2021/06/19 10:54:14;;;;;;;;;12.25;11.00;;;;;26.06;51.14;100735.41;5094079;27;45878;-72
2021/06/19 10:56:56;;;;;;;;;13.00;13.00;;;;;26.12;51.22;100727.53;5104584;27;45324;-72
2021/06/19 10:59:22;;;;;;;;;11.25;10.50;;;;;26.17;50.80;100727.75;5104553;27;45384;-72
2021/06/19 11:01:48;;;;;;;;;11.75;11.25;;;;;26.20;50.67;100719.22;5093439;27;45465;-72
2021/06/19 11:04:41;;;;;;;;;15.00;12.75;;;;;26.23;50.01;100711.50;5103255;27;47366;-72
2021/06/19 11:07:19;;;;;;;;;12.75;11.25;;;;;26.27;49.97;100718.22;5085038;27;45417;-72
2021/06/19 11:09:46;;;;;;;;;12.00;10.75;;;;;26.30;50.07;100711.56;5100820;27;45350;-72
2021/06/19 11:12:28;;;;;;;;;11.00;10.25;;;;;26.37;50.09;100707.81;5092123;27;46108;-72
2021/06/19 11:14:59;;;;;;;;;12.25;10.00;;;;;26.44;50.25;100699.69;5091221;27;45441;-72
2021/06/19 11:17:25;;;;;;;;;13.50;12.25;;;;;26.50;49.39;100706.13;5098245;27;45742;-72
2021/06/19 11:20:05;;;;;;;;;12.25;10.75;;;;;26.56;49.54;100698.03;5104113;27;45506;-72
2021/06/19 11:22:40;;;;;;;;;13.25;12.25;;;;;26.63;49.48;100700.72;5103090;27;45439;-72
2021/06/19 11:25:14;;;;;;;;;12.75;11.25;;;;;26.69;49.35;100700.72;5105499;27;46115;-72
2021/06/19 11:27:50;;;;;;;;;13.00;11.50;;;;;26.75;48.75;100710.72;5092782;27;45876;-72
2021/06/19 11:30:34;;;;;;;;;13.25;10.00;;;;;26.78;48.84;100699.47;5079961;27;45362;-72
2021/06/19 11:33:21;;;;;;;;;12.25;11.25;;;;;26.81;48.28;100696.34;5102737;27;45155;-72
2021/06/19 11:35:58;;;;;;;;;12.00;10.75;;;;;26.85;48.42;100693.22;5083837;27;45620;-72
2021/06/19 11:38:24;;;;;;;;;14.50;12.00;;;;;26.86;48.44;100692.97;5061898;28;45330;-73
2021/06/19 11:40:50;;;;;;;;;12.00;11.75;;;;;26.89;48.25;100692.56;5097665;27;45356;-73
2021/06/19 11:43:28;;;;;;;;;13.00;11.00;;;;;26.95;48.33;100691.75;5078382;27;45564;-72
2021/06/19 11:45:57;;;;;;;;;13.00;12.00;;;;;26.99;48.02;100703.00;5063501;27;47339;-73
2021/06/19 11:48:23;;;;;;;;;12.25;10.75;;;;;27.03;48.09;100696.97;5057570;28;45600;-73
2021/06/19 11:50:48;;;;;;;;;12.75;10.50;;;;;27.05;48.22;100696.72;5072671;27;64275;-73
2021/06/19 11:53:26;;;;;;;;;10.25;10.25;;;;;27.06;47.69;100699.22;5091932;27;62069;-72
2021/06/19 11:55:52;;;;;;;;;11.25;10.75;;;;;27.08;47.11;100694.44;5073980;27;45380;-72
2021/06/19 11:58:17;;;;;;;;;12.00;12.00;;;;;27.10;47.36;100684.22;5056501;28;45504;-73
2021/06/19 12:00:55;;;;;;;;;11.50;11.50;;;;;27.12;47.20;100674.00;5076058;28;45769;-72
2021/06/19 12:03:24;;;;;;;;;16.00;14.75;;;;;27.14;47.16;100673.75;5052051;28;45478;-72
2021/06/19 12:05:49;;;;;;;;;14.25;13.25;;;;;27.15;47.37;100672.72;5059730;27;45467;-72
2021/06/19 12:08:15;;;;;;;;;13.25;13.25;;;;;27.19;46.74;100671.25;5077648;27;45319;-73
2021/06/19 12:10:40;;;;;;;;;14.75;13.25;;;;;27.25;47.13;100670.41;5073484;27;45501;-73
2021/06/19 12:13:07;;;;;;;;;12.00;12.00;;;;;27.29;46.85;100668.09;5090083;27;54266;-72
2021/06/19 12:15:33;;;;;;;;;15.00;12.50;;;;;27.35;46.42;100668.06;5097100;27;46193;-73
2021/06/19 12:18:00;;;;;;;;;13.25;11.00;;;;;27.36;46.59;100660.75;5062017;27;45485;-72
2021/06/19 12:20:26;;;;;;;;;14.25;13.50;;;;;27.37;46.51;100654.28;5056108;27;45537;-72
2021/06/19 12:22:51;;;;;;;;;15.50;14.00;;;;;27.36;46.65;100658.06;5088028;27;45432;-73
2021/06/19 12:25:29;;;;;;;;;16.25;16.25;;;;;27.35;46.91;100651.78;5078858;27;45468;-73
2021/06/19 12:27:55;;;;;;;;;15.75;12.75;;;;;27.36;45.92;100650.75;5063388;27;45573;-75
2021/06/19 12:30:20;;;;;;;;;15.75;13.25;;;;;27.37;46.30;100643.44;5058543;27;45820;-72
2021/06/19 12:32:46;;;;;;;;;14.25;14.00;;;;;27.37;46.67;100632.59;5084082;27;45414;-73
2021/06/19 12:35:13;;;;;;;;;15.00;13.50;;;;;27.40;46.49;100640.31;5069169;28;45461;-72
2021/06/19 12:37:40;;;;;;;;;14.00;13.00;;;;;27.41;46.54;100631.09;5041317;27;45564;-72
2021/06/19 12:40:07;;;;;;;;;13.50;13.00;;;;;27.43;46.47;100629.84;5058466;27;45432;-73
2021/06/19 12:42:46;;;;;;;;;14.00;14.00;;;;;27.46;46.30;100634.00;5069512;27;45762;-72
2021/06/19 12:45:23;;;;;;;;;15.75;15.75;;;;;27.49;46.43;100626.28;5064779;27;45920;-72
2021/06/19 12:47:49;;;;;;;;;15.75;14.75;;;;;27.49;46.26;100615.44;5073774;27;46340;-72
2021/06/19 12:50:34;;;;;;;;;14.50;13.25;;;;;27.51;46.10;100612.47;5055275;27;45667;-73
2021/06/19 12:53:12;;;;;;;;;13.25;13.25;;;;;27.51;46.03;100602.47;5059469;27;45932;-72
2021/06/19 12:55:58;;;;;;;;;15.25;13.50;;;;;27.54;46.25;100599.34;5059183;27;47304;-72
2021/06/19 12:58:42;;;;;;;;;15.75;14.00;;;;;27.55;45.63;100583.91;5086644;27;45396;-72
2021/06/19 13:01:21;;;;;;;;;15.50;14.50;;;;;27.57;46.24;100570.97;5079157;27;45578;-72
2021/06/19 13:03:50;;;;;;;;;12.25;12.25;;;;;27.59;45.86;100570.75;5076046;27;45603;-72
2021/06/19 13:06:29;;;;;;;;;16.25;15.00;;;;;27.58;46.34;100567.22;5065030;27;47115;-72
2021/06/19 13:08:56;;;;;;;;;14.25;14.25;;;;;27.60;46.19;100561.53;5053654;27;45426;-72
2021/06/19 13:11:33;;;;;;;;;17.00;15.25;;;;;27.60;46.32;100553.41;5062692;28;45462;-72
2021/06/19 13:14:01;;;;;;;;;14.25;14.00;;;;;27.62;46.29;100540.47;5041661;27;45475;-72
2021/06/19 13:16:34;;;;;;;;;12.50;12.25;;;;;27.62;46.17;100522.31;5065700;27;47478;-73
2021/06/19 13:19:08;;;;;;;;;14.00;14.00;;;;;27.63;45.65;100515.81;5080914;27;45361;-72
2021/06/19 13:21:35;;;;;;;;;15.00;13.25;;;;;27.63;46.41;100509.56;5051509;27;45359;-72
2021/06/19 13:24:23;;;;;;;;;12.00;11.00;;;;;27.64;46.09;100506.63;5059433;27;45304;-73
2021/06/19 13:26:50;;;;;;;;;14.75;14.50;;;;;27.65;46.35;100502.03;5075783;27;47178;-73
2021/06/19 13:29:15;;;;;;;;;14.75;13.25;;;;;27.66;46.14;100509.13;5081724;27;45306;-72
2021/06/19 13:31:42;;;;;;;;;17.75;16.50;;;;;27.67;46.07;100499.94;5079916;27;45409;-73
2021/06/19 13:34:09;;;;;;;;;13.25;12.50;;;;;27.67;46.17;100513.50;5090432;27;45615;-73
2021/06/19 13:36:36;;;;;;;;;13.00;13.00;;;;;27.67;46.41;100499.94;5063078;27;46006;-73
2021/06/19 13:39:14;;;;;;;;;15.25;14.25;;;;;27.65;46.41;100504.75;5091298;27;45884;-72
2021/06/19 13:41:45;;;;;;;;;14.50;13.75;;;;;27.66;46.60;100503.72;5085050;27;45651;-73
2021/06/19 13:44:18;;;;;;;;;13.00;13.00;;;;;27.67;46.50;100494.53;5082737;27;45537;-73
2021/06/19 13:46:44;;;;;;;;;13.00;12.00;;;;;27.67;46.44;100498.06;5088078;27;46057;-72
2021/06/19 13:49:10;;;;;;;;;11.00;10.75;;;;;27.67;46.39;100491.81;5083728;27;45532;-73
2021/06/19 13:51:36;;;;;;;;;11.75;10.25;;;;;27.64;46.63;100489.53;5066409;27;45390;-73
2021/06/19 13:54:03;;;;;;;;;12.00;12.00;;;;;27.64;46.71;100489.53;5072657;27;45335;-73
2021/06/19 13:56:28;;;;;;;;;15.00;12.00;;;;;27.67;46.57;100480.97;5080162;27;45446;-74
2021/06/19 13:58:54;;;;;;;;;12.25;11.00;;;;;27.69;46.69;100467.97;5064032;28;45542;-72
2021/06/19 14:01:19;;;;;;;;;14.00;12.25;;;;;27.67;47.01;100460.09;5083600;27;45981;-73
2021/06/19 14:03:45;;;;;;;;;11.50;10.75;;;;;27.69;46.55;100457.97;5093580;27;45628;-73
2021/06/19 14:06:14;;;;;;;;;11.25;11.25;;;;;27.71;46.82;100468.59;5086632;27;46081;-73
2021/06/19 14:08:48;;;;;;;;;12.00;12.00;;;;;27.71;46.95;100479.44;5076246;27;45304;-73
2021/06/19 14:11:16;;;;;;;;;11.50;10.00;;;;;27.72;46.60;100483.81;5082157;27;45311;-73
2021/06/19 14:13:42;;;;;;;;;11.00;11.00;;;;;27.70;47.15;100472.34;5072587;27;45539;-73
2021/06/19 14:16:07;;;;;;;;;11.50;10.25;;;;;27.70;46.59;100453.38;5073407;27;45387;-74
2021/06/19 14:18:34;;;;;;;;;14.00;12.00;;;;;27.70;47.22;100437.91;5086881;27;45305;-74
2021/06/19 14:21:02;;;;;;;;;13.25;12.00;;;;;27.72;47.25;100427.69;5068979;27;45737;-73
2021/06/19 14:23:27;;;;;;;;;11.25;10.75;;;;;27.74;47.26;100422.03;5058404;28;45661;-74
2021/06/19 14:25:53;;;;;;;;;12.25;9.25;;;;;27.72;47.08;100411.41;5059466;27;47551;-73
2021/06/19 14:28:18;;;;;;;;;13.00;13.00;;;;;27.73;47.36;100399.50;5081810;27;45408;-74
2021/06/19 14:30:44;;;;;;;;;10.75;10.75;;;;;27.73;47.37;100407.63;5080020;27;45339;-75
2021/06/19 14:33:09;;;;;;;;;13.00;10.00;;;;;27.71;47.12;100398.03;5059537;27;45556;-73
2021/06/19 14:35:35;;;;;;;;;10.75;10.75;;;;;27.72;47.45;100405.13;5062042;27;47451;-74
2021/06/19 14:38:00;;;;;;;;;13.50;11.25;;;;;27.73;47.56;100423.09;5057811;27;45530;-74
2021/06/19 14:40:27;;;;;;;;;14.25;13.25;;;;;27.74;47.61;100432.88;5078485;27;56740;-74
2021/06/19 14:42:53;;;;;;;;;12.50;12.00;;;;;27.78;47.40;100434.09;5080137;27;45555;-74
2021/06/19 14:45:18;;;;;;;;;13.75;13.00;;;;;27.80;47.84;100431.97;5057856;27;48376;-75
2021/06/19 14:47:43;;;;;;;;;11.75;11.75;;;;;27.80;47.85;100431.97;5088579;27;69792;-74
2021/06/19 14:50:09;;;;;;;;;14.75;13.25;;;;;27.82;47.92;100397.31;5067464;27;45511;-74
2021/06/19 14:52:39;;;;;;;;;10.25;10.25;;;;;27.80;48.15;100378.53;5075886;27;45439;-74
2021/06/19 14:55:05;;;;;;;;;12.25;12.25;;;;;27.78;48.10;100377.09;5089320;27;46207;-74
2021/06/19 14:57:30;;;;;;;;;12.00;10.75;;;;;27.77;47.91;100373.56;5068679;27;46205;-74
2021/06/19 14:59:55;;;;;;;;;10.00;10.00;;;;;27.76;47.70;100376.50;5077080;27;47167;-72
2021/06/19 15:02:21;;;;;;;;;13.50;10.50;;;;;27.78;48.06;100360.81;5074080;28;45767;-71
2021/06/19 15:04:46;;;;;;;;;12.00;11.25;;;;;27.76;48.02;100354.81;5075101;27;56137;-71
2021/06/19 15:07:12;;;;;;;;;11.25;10.00;;;;;27.75;48.46;100362.13;5078546;27;45463;-72
2021/06/19 15:09:37;;;;;;;;;13.00;11.00;;;;;27.72;48.09;100351.69;5079510;27;45455;-71
2021/06/19 15:12:03;;;;;;;;;14.50;13.00;;;;;27.71;48.33;100341.91;5080032;27;59527;-71
2021/06/19 15:14:28;;;;;;;;;8.75;8.50;;;;;27.73;48.14;100345.22;5082598;27;45893;-70
2021/06/19 15:16:54;;;;;;;;;11.00;10.75;;;;;27.72;48.17;100335.41;5099033;27;45526;-70
2021/06/19 15:19:19;;;;;;;;;13.00;12.00;;;;;27.70;48.30;100329.38;5064896;27;56251;-72
2021/06/19 15:21:45;;;;;;;;;12.00;11.00;;;;;27.72;48.86;100312.88;5074435;27;45426;-73
2021/06/19 15:24:10;;;;;;;;;9.50;9.25;;;;;27.69;48.68;100322.28;5086470;27;65144;-72
2021/06/19 15:26:35;;;;;;;;;13.00;12.00;;;;;27.69;48.78;100311.44;5081499;27;45291;-72
2021/06/19 15:29:04;;;;;;;;;9.25;9.25;;;;;27.67;48.63;100255.78;5082035;27;50830;-72
2021/06/19 15:31:29;;;;;;;;;11.50;9.00;;;;;27.63;49.22;100228.25;5082299;27;62121;-72
2021/06/19 15:33:55;;;;;;;;;9.00;9.00;;;;;27.60;49.32;100227.88;5072054;27;46795;-73
2021/06/19 15:36:20;;;;;;;;;11.00;10.00;;;;;27.61;49.11;100251.22;5067329;27;63527;-73
2021/06/19 15:38:48;;;;;;;;;13.00;11.25;;;;;27.59;49.39;100297.56;5065330;28;45428;-72
2021/06/19 15:41:13;;;;;;;;;11.00;10.00;;;;;27.60;49.52;100333.66;5055177;27;45410;-72
2021/06/19 15:43:38;;;;;;;;;12.00;10.50;;;;;27.63;49.63;100316.94;5058202;27;45437;-74
2021/06/19 15:46:04;;;;;;;;;13.00;9.75;;;;;27.69;49.75;100275.34;5072140;27;53614;-73
2021/06/19 15:48:29;;;;;;;;;10.25;8.50;;;;;27.76;48.70;100251.69;5062932;27;59443;-71
2021/06/19 15:50:55;;;;;;;;;9.75;8.25;;;;;27.81;48.20;100277.09;5081623;27;56103;-71
2021/06/19 15:53:20;;;;;;;;;9.00;8.25;;;;;27.88;48.54;100266.97;5069394;27;45529;-71
2021/06/19 15:55:46;;;;;;;;;10.50;10.25;;;;;27.94;48.26;100262.53;5048801;27;45776;-72
2021/06/19 15:58:11;;;;;;;;;9.25;8.25;;;;;27.99;47.87;100269.97;5073341;28;65060;-72
2021/06/19 16:00:37;;;;;;;;;8.00;7.75;;;;;28.02;48.50;100237.78;5068351;28;64865;-73
2021/06/19 16:03:02;;;;;;;;;10.00;8.25;;;;;28.04;47.16;100224.81;5060057;27;57768;-74
2021/06/19 16:05:27;;;;;;;;;8.25;8.25;;;;;28.09;47.45;100267.53;5062287;27;45906;-73
2021/06/19 16:07:53;;;;;;;;;8.00;8.00;;;;;28.11;47.18;100287.97;5074098;27;64484;-72
2021/06/19 16:10:18;;;;;;;;;8.50;8.00;;;;;28.14;46.89;100294.81;5059769;28;53171;-72
2021/06/19 16:12:44;;;;;;;;;12.25;10.75;;;;;28.16;47.16;100350.59;5067411;27;45549;-72
2021/06/19 16:15:11;;;;;;;;;11.00;9.00;;;;;28.18;47.91;100380.25;5065356;27;56235;-72
2021/06/19 16:17:36;;;;;;;;;12.25;10.25;;;;;28.18;48.22;100421.81;5062190;27;45410;-72
2021/06/19 16:20:03;;;;;;;;;11.00;10.50;;;;;28.20;47.58;100452.28;5062113;28;56661;-72
2021/06/19 16:22:28;;;;;;;;;9.00;9.00;;;;;28.21;48.02;100445.78;5093126;27;48577;-72
2021/06/19 16:24:54;;;;;;;;;10.00;10.00;;;;;28.22;47.62;100439.31;5069278;28;45317;-73
2021/06/19 16:27:19;;;;;;;;;11.75;11.75;;;;;28.24;48.24;100463.50;5092908;27;45365;-74
2021/06/19 16:29:44;;;;;;;;;9.75;9.75;;;;;28.25;48.06;100440.72;5080597;27;49951;-72
2021/06/19 16:32:12;;;;;;;;;11.75;11.00;;;;;28.26;49.11;100405.19;5073681;27;47261;-73
2021/06/19 16:34:38;;;;;;;;;12.00;10.25;;;;;28.27;48.79;100390.56;5080426;27;45286;-73
2021/06/19 16:37:04;;;;;;;;;10.50;9.25;;;;;28.32;48.70;100394.50;5071056;27;45358;-73
2021/06/19 16:39:29;;;;;;;;;9.75;9.75;;;;;28.31;48.20;100384.69;5078621;27;45728;-73
2021/06/19 16:41:55;;;;;;;;;10.75;8.00;;;;;28.33;47.83;100386.09;5081181;27;45581;-73
2021/06/19 16:44:20;;;;;;;;;11.25;10.50;;;;;28.35;48.23;100388.59;5075235;27;45345;-73
2021/06/19 16:46:46;;;;;;;;;8.00;8.00;;;;;28.36;48.61;100382.94;5084312;27;49301;-73
2021/06/19 16:49:11;;;;;;;;;12.75;10.25;;;;;28.37;48.06;100371.03;5080823;27;62836;-73
2021/06/19 16:51:36;;;;;;;;;13.00;9.00;;;;;28.39;49.24;100370.78;5073710;27;45307;-73
2021/06/19 16:54:02;;;;;;;;;12.00;10.00;;;;;28.40;49.66;100350.72;5090545;27;45431;-73
2021/06/19 16:56:27;;;;;;;;;13.50;10.75;;;;;28.40;48.73;100329.00;5096404;27;45409;-73
2021/06/19 16:58:53;;;;;;;;;8.50;8.50;;;;;28.43;49.01;100317.66;5090494;27;53206;-73
2021/06/19 17:01:18;;;;;;;;;11.75;10.75;;;;;28.41;47.70;100304.28;5075102;27;64843;-73
2021/06/19 17:03:44;;;;;;;;;9.00;9.00;;;;;28.41;47.55;100306.22;5084780;27;45481;-74
2021/06/19 17:06:09;;;;;;;;;12.00;8.75;;;;;28.43;47.11;100314.94;5043277;27;45512;-74
2021/06/19 17:08:35;;;;;;;;;7.50;7.50;;;;;28.43;47.48;100326.63;5057799;27;45656;-73
2021/06/19 17:11:02;;;;;;;;;9.50;9.50;;;;;28.45;47.91;100348.97;5064022;27;49038;-74
2021/06/19 17:13:33;;;;;;;;;8.50;8.50;;;;;28.47;47.61;100362.31;5042219;27;45836;-74
2021/06/19 17:15:58;;;;;;;;;13.50;10.50;;;;;28.48;47.66;100355.84;5076751;27;45459;-74
2021/06/19 17:18:23;;;;;;;;;12.00;10.00;;;;;28.49;47.66;100333.03;5078077;27;68472;-75
2021/06/19 17:20:49;;;;;;;;;14.50;12.50;;;;;28.39;48.49;100325.44;5080500;27;46270;-76
2021/06/19 17:23:14;;;;;;;;;15.25;15.25;;;;;28.18;49.18;100307.75;5081524;27;45385;-74
2021/06/19 17:25:40;;;;;;;;;17.00;16.00;;;;;27.95;49.85;100299.47;5071031;27;45490;-75
2021/06/19 17:28:05;;;;;;;;;17.25;16.25;;;;;27.77;50.11;100296.78;5072757;27;45605;-75
2021/06/19 17:30:31;;;;;;;;;14.00;14.00;;;;;27.57;50.43;100288.84;5065277;27;45551;-75
2021/06/19 17:32:56;;;;;;;;;15.00;13.00;;;;;27.39;50.56;100280.66;5079067;27;45456;-77
2021/06/19 17:35:22;;;;;;;;;15.00;14.50;;;;;27.27;51.62;100280.56;5084043;27;52607;-77
2021/06/19 17:37:47;;;;;;;;;16.75;16.75;;;;;27.15;51.77;100285.88;5079568;27;45483;-77
2021/06/19 17:40:13;;;;;;;;;22.25;14.00;;;;;27.06;51.86;100299.94;5075095;27;66779;-76
2021/06/19 17:42:38;;;;;;;;;16.25;16.00;;;;;27.01;52.61;100313.34;5081880;27;45366;-77
2021/06/19 17:45:04;;;;;;;;;16.25;16.25;;;;;26.95;52.73;100325.88;5078758;27;48446;-78
2021/06/19 17:47:30;;;;;;;;;15.25;14.25;;;;;26.93;52.87;100338.00;5072332;27;46180;-76
2021/06/19 17:49:55;;;;;;;;;18.25;14.50;;;;;26.95;53.00;100365.72;5074303;27;45450;-76
2021/06/19 17:52:23;;;;;;;;;17.00;14.00;;;;;27.00;52.98;100401.13;5070208;27;45757;-77
2021/06/19 17:54:49;;;;;;;;;16.50;16.25;;;;;27.02;53.10;100377.34;5085940;27;45453;-77
2021/06/19 17:57:18;;;;;;;;;17.50;17.50;;;;;27.00;53.35;100384.84;5065535;27;54172;-77
2021/06/19 17:59:43;;;;;;;;;20.00;17.00;;;;;26.96;53.46;100405.31;5079637;27;46447;-76
2021/06/19 18:02:10;;;;;;;;;20.25;16.75;;;;;26.93;53.45;100420.13;5071541;27;59382;-79
2021/06/19 18:04:35;;;;;;;;;17.00;16.50;;;;;26.92;53.39;100417.63;5069859;27;45414;-77
2021/06/19 18:07:00;;;;;;;;;18.25;17.50;;;;;26.89;53.52;100405.31;5088630;27;45485;-79
2021/06/19 18:09:26;;;;;;;;;21.00;18.00;;;;;26.83;53.63;100398.91;5059981;27;53823;-76
2021/06/19 18:11:54;;;;;;;;;19.00;17.00;;;;;26.75;53.25;100391.03;5055647;27;45414;-76
2021/06/19 18:14:19;;;;;;;;;16.00;15.00;;;;;26.70;54.06;100381.88;5077534;27;45401;-76
2021/06/19 18:16:45;;;;;;;;;17.25;15.25;;;;;26.63;53.96;100392.75;5061235;27;59270;-80
2021/06/19 18:19:10;;;;;;;;;20.75;16.50;;;;;26.55;54.63;100395.72;5060358;28;70761;-87
2021/06/19 18:21:36;;;;;;;;;19.00;18.25;;;;;26.55;54.43;100387.59;5049100;27;61438;-86
2021/06/19 18:24:02;;;;;;;;;24.50;19.00;;;;;26.52;54.45;100389.91;5064964;28;45451;-90
2021/06/19 18:26:27;;;;;;;;;21.00;18.50;;;;;26.45;54.62;100396.19;5082142;27;45346;-81
2021/06/19 18:28:53;;;;;;;;;20.75;17.50;;;;;26.38;54.61;100399.97;5083265;27;66596;-82
2021/06/19 18:31:19;;;;;;;;;15.25;15.25;;;;;26.30;54.73;100409.16;5067775;27;56620;-78
2021/06/19 18:33:44;;;;;;;;;16.75;15.75;;;;;26.23;54.70;100416.44;5078018;27;45490;-80
2021/06/19 18:36:09;;;;;;;;;16.75;15.50;;;;;26.20;54.77;100405.22;5080309;27;63641;-81
2021/06/19 18:38:35;;;;;;;;;21.00;18.75;;;;;26.18;55.17;100413.53;5042702;27;53317;-81
2021/06/19 18:41:00;;;;;;;;;18.50;17.00;;;;;26.16;55.02;100412.09;5081500;27;45436;-80
2021/06/19 18:43:26;;;;;;;;;16.25;16.25;;;;;26.13;55.05;100404.41;5061548;27;64056;-80
2021/06/19 18:45:54;;;;;;;;;17.00;14.50;;;;;26.11;54.80;100392.97;5090601;27;45507;-80
2021/06/19 18:48:20;;;;;;;;;17.50;15.75;;;;;26.11;55.37;100382.97;5035758;28;47227;-80
2021/06/19 18:50:45;;;;;;;;;21.25;18.00;;;;;26.14;54.98;100373.56;5067008;28;45486;-80
2021/06/19 18:53:11;;;;;;;;;21.50;20.75;;;;;26.10;55.51;100362.38;5089989;27;53714;-81
2021/06/19 18:55:36;;;;;;;;;23.00;21.50;;;;;26.05;55.68;100357.56;5074155;27;62967;-84
2021/06/19 18:58:01;;;;;;;;;23.00;20.50;;;;;26.00;55.97;100362.81;5062999;27;68553;-81
2021/06/19 19:00:27;;;;;;;;;18.50;18.25;;;;;25.94;55.70;100347.44;5080543;28;71233;-81
2021/06/19 19:02:53;;;;;;;;;20.00;18.00;;;;;25.92;55.76;100349.53;5057858;27;45551;-81
2021/06/19 19:05:18;;;;;;;;;16.00;15.25;;;;;25.93;55.90;100334.94;5078396;28;45658;-85
2021/06/19 19:07:45;;;;;;;;;14.50;13.75;;;;;25.96;56.26;100329.09;5084381;27;45991;-84
2021/06/19 19:10:10;;;;;;;;;19.25;16.75;;;;;26.02;56.21;100339.09;5062417;27;45599;-82
2021/06/19 19:12:36;;;;;;;;;17.25;16.00;;;;;26.07;55.84;100341.97;5093587;27;45414;-86
2021/06/19 19:15:01;;;;;;;;;14.75;13.75;;;;;26.16;55.20;100349.84;5048766;27;45746;-86
2021/06/19 19:17:26;;;;;;;;;18.00;15.75;;;;;26.20;55.57;100370.03;5045315;27;47739;-83
2021/06/19 19:19:52;;;;;;;;;15.25;14.75;;;;;26.23;55.32;100364.16;5060898;27;59524;-81
2021/06/19 19:22:18;;;;;;;;;16.25;15.00;;;;;26.26;55.07;100344.78;5059465;27;45421;-88
2021/06/19 19:24:43;;;;;;;;;17.50;13.75;;;;;26.27;54.93;100328.38;5056135;27;45498;-87
2021/06/19 19:27:10;;;;;;;;;14.25;14.25;;;;;26.30;54.75;100310.88;5077439;27;47208;-90
2021/06/19 19:29:36;;;;;;;;;11.25;11.25;;;;;26.32;54.74;100315.00;5052978;27;45442;-84
2021/06/19 19:32:02;;;;;;;;;16.25;13.75;;;;;26.34;54.67;100310.22;5085613;27;45387;-81
2021/06/19 19:34:28;;;;;;;;;14.50;12.25;;;;;26.32;54.57;100303.34;5088549;27;45270;-84
2021/06/19 19:36:53;;;;;;;;;14.00;13.75;;;;;26.26;54.70;100285.25;5069901;27;72976;-85
2021/06/19 19:39:19;;;;;;;;;17.25;14.00;;;;;26.20;54.13;100283.41;5074697;27;45469;-83
2021/06/19 19:41:44;;;;;;;;;13.75;13.75;;;;;26.18;54.97;100297.16;5063769;27;45385;-82
2021/06/19 19:44:10;;;;;;;;;15.00;14.25;;;;;26.12;54.94;100292.63;5080523;27;45544;-85
2021/06/19 19:46:35;;;;;;;;;17.00;14.25;;;;;26.06;54.34;100299.69;5072979;27;45419;-93
2021/06/19 19:49:01;;;;;;;;;15.50;14.25;;;;;26.04;54.58;100293.66;5063025;27;57595;-86
2021/06/19 19:51:27;;;;;;;;;14.50;13.00;;;;;26.04;54.85;100280.13;5087032;27;45262;-84
2021/06/19 19:53:52;;;;;;;;;12.75;11.25;;;;;26.04;55.18;100280.13;5071061;27;45324;-85
2021/06/19 19:56:17;;;;;;;;;14.50;14.25;;;;;26.04;55.09;100282.84;5053308;27;46358;-82
2021/06/19 19:58:43;;;;;;;;;17.00;14.75;;;;;26.05;54.81;100284.50;5057397;27;54460;-85
2021/06/19 20:01:09;;;;;;;;;15.00;11.75;;;;;26.04;54.89;100273.91;5077468;27;45327;-88
2021/06/19 20:03:34;;;;;;;;;16.00;14.75;;;;;26.06;54.61;100278.06;5087166;27;54373;-92
2021/06/19 20:06:00;;;;;;;;;11.75;11.75;;;;;26.12;54.77;100286.38;5060803;28;45453;-92
2021/06/19 20:08:26;;;;;;;;;15.00;12.00;;;;;26.13;54.73;100277.22;5074864;28;45518;-92
2021/06/19 20:10:51;;;;;;;;;16.25;13.50;;;;;26.14;54.57;100290.50;5100590;27;45265;-95
2021/06/19 20:13:18;;;;;;;;;14.25;11.50;;;;;26.15;54.55;100281.34;5096057;27;46000;-94
2021/06/19 20:15:43;;;;;;;;;12.75;11.00;;;;;26.16;54.36;100283.00;5094607;27;45246;-93
2021/06/19 20:18:08;;;;;;;;;17.50;16.00;;;;;26.19;54.70;100290.69;5091639;27;46960;-93
2021/06/19 20:20:35;;;;;;;;;13.75;13.50;;;;;26.20;54.47;100284.25;5092956;28;45165;-92
2021/06/19 20:23:00;;;;;;;;;13.00;12.50;;;;;26.20;54.71;100283.41;5108877;27;62039;-94
2021/06/19 20:25:26;;;;;;;;;15.00;14.50;;;;;26.19;54.52;100285.28;5095621;27;64378;-95
2021/06/19 20:27:51;;;;;;;;;13.25;12.75;;;;;26.16;54.50;100282.16;5073940;27;47094;-94
2021/06/19 20:30:17;;;;;;;;;14.50;13.75;;;;;26.11;54.68;100292.81;5081639;27;45320;-93
2021/06/19 20:32:43;;;;;;;;;13.50;13.50;;;;;26.06;54.61;100299.69;5067301;27;45502;-93
2021/06/19 20:35:10;;;;;;;;;16.25;13.25;;;;;26.05;54.23;100298.03;5073448;27;46021;-93
2021/06/19 20:37:36;;;;;;;;;18.50;14.00;;;;;26.04;54.95;100293.66;5065287;27;45414;-94
2021/06/19 20:40:01;;;;;;;;;14.25;13.00;;;;;26.06;55.08;100305.13;5072238;28;45503;-93
2021/06/19 20:42:27;;;;;;;;;13.50;11.75;;;;;26.11;54.78;100298.25;5072809;28;45933;-91
2021/06/19 20:44:52;;;;;;;;;15.00;15.00;;;;;26.15;54.22;100297.56;5074504;27;55358;-92
2021/06/19 20:47:18;;;;;;;;;12.75;12.25;;;;;26.16;54.56;100303.81;5077712;27;59533;-92
2021/06/19 20:49:43;;;;;;;;;15.00;13.00;;;;;26.13;54.62;100302.38;5074476;27;45368;-92
2021/06/19 20:52:09;;;;;;;;;15.75;14.00;;;;;26.15;54.82;100315.69;5064185;27;45403;-92
2021/06/19 20:54:47;;;;;;;;;10.50;10.00;;;;;26.17;54.52;100333.38;5077658;28;45481;-93
2021/06/19 20:57:13;;;;;;;;;15.00;12.00;;;;;26.21;54.43;100333.81;5089439;27;45432;-91
2021/06/19 20:59:38;;;;;;;;;14.00;13.50;;;;;26.23;54.49;100327.09;5067960;28;45387;-91
2021/06/19 21:02:04;;;;;;;;;15.50;15.50;;;;;26.26;54.43;100324.00;5094872;27;45870;-90
2021/06/19 21:04:29;;;;;;;;;10.50;9.50;;;;;26.28;54.35;100321.91;5091804;27;46155;-91
2021/06/19 21:06:55;;;;;;;;;14.50;11.50;;;;;26.32;53.78;100330.41;5091850;27;62386;-91
2021/06/19 21:09:20;;;;;;;;;14.00;11.50;;;;;26.35;54.09;100330.84;5097028;27;45593;-91
2021/06/19 21:11:46;;;;;;;;;15.75;14.75;;;;;26.40;53.98;100319.38;5079612;27;70556;-92
2021/06/19 21:14:12;;;;;;;;;17.75;15.25;;;;;26.42;54.20;100320.78;5085453;27;45480;-90
2021/06/19 21:16:38;;;;;;;;;15.75;13.25;;;;;26.44;53.37;100317.88;5087449;27;45234;-90
2021/06/19 21:19:03;;;;;;;;;16.75;15.00;;;;;26.44;53.83;100331.41;5063908;27;45570;-93
2021/06/19 21:21:29;;;;;;;;;14.50;14.00;;;;;26.46;53.67;100332.03;5067748;27;45783;-93
2021/06/19 21:23:54;;;;;;;;;14.25;13.75;;;;;26.50;53.66;100335.94;5042655;27;47664;-92
2021/06/19 21:26:20;;;;;;;;;12.25;11.00;;;;;26.54;53.72;100339.06;5070399;27;45336;-89
2021/06/19 21:28:45;;;;;;;;;15.50;13.25;;;;;26.59;53.43;100348.19;5076808;28;46091;-87
2021/06/19 21:31:11;;;;;;;;;13.00;13.00;;;;;26.66;53.36;100364.41;5058233;27;45424;-87
2021/06/19 21:33:36;;;;;;;;;14.50;13.25;;;;;26.66;53.36;100367.13;5065071;27;47108;-92
2021/06/19 21:36:01;;;;;;;;;13.75;13.00;;;;;26.72;53.22;100369.78;5049122;27;56041;-92